Time,TemperatureF,DewpointF,PressureIn,WindDirection,WindDirectionDegrees,WindSpeedMPH,WindSpeedGustMPH,Humidity,HourlyPrecipIn,Conditions,Clouds,dailyrainin,SoftwareType,DateUTC
2014-04-23 00:01:00,35.1,29.2,33.80,North,0,0.0,0.0,79,0.00,,SKC,0.00,VWS V13.00,2014-04-23 06:01:00,
2014-04-23 00:06:00,35.1,29.2,33.80,North,0,0.0,0.0,79,0.00,,SKC,0.00,VWS V13.00,2014-04-23 06:06:00,
2014-04-23 00:11:00,35.1,29.2,33.80,North,0,0.0,0.0,79,0.00,,SKC,0.00,VWS V13.00,2014-04-23 06:11:00,
2014-04-23 00:16:00,35.1,29.2,33.80,North,0,0.0,0.0,79,0.00,,SKC,0.00,VWS V13.00,2014-04-23 06:16:00,
2014-04-23 00:21:00,35.1,29.2,33.80,North,0,0.0,0.0,79,0.00,,SKC,0.00,VWS V13.00,2014-04-23 06:21:00,
2014-04-23 00:26:00,35.1,29.2,33.80,North,0,0.0,0.0,79,0.00,,SKC,0.00,VWS V13.00,2014-04-23 06:26:00,
2014-04-23 00:31:00,34.9,29.0,33.80,North,0,0.0,0.0,79,0.00,,SKC,0.00,VWS V13.00,2014-04-23 06:31:00,
2014-04-23 00:36:00,34.9,29.0,33.80,North,0,0.0,0.0,79,0.00,,SKC,0.00,VWS V13.00,2014-04-23 06:36:00,
2014-04-23 00:41:00,34.9,29.0,33.80,North,0,0.0,0.0,79,0.00,,SKC,0.00,VWS V13.00,2014-04-23 06:41:00,
2014-04-23 00:46:00,34.9,29.0,33.80,North,0,0.0,0.0,79,0.00,,SKC,0.00,VWS V13.00,2014-04-23 06:46:00,
2014-04-23 00:51:00,34.9,29.0,33.80,North,0,0.0,0.0,79,0.00,,SKC,0.00,VWS V13.00,2014-04-23 06:51:00,
2014-04-23 00:56:00,34.9,29.0,33.80,North,0,0.0,0.0,79,0.00,,SKC,0.00,VWS V13.00,2014-04-23 06:56:00,
2014-04-23 01:01:00,34.9,29.0,33.80,North,0,0.0,0.0,79,0.00,,SKC,0.00,VWS V13.00,2014-04-23 07:01:00,
2014-04-23 01:06:00,34.7,28.9,33.80,North,0,0.0,0.0,79,0.00,,SKC,0.00,VWS V13.00,2014-04-23 07:06:00,
2014-04-23 01:11:00,34.7,28.9,33.80,North,0,0.0,0.0,79,0.00,,SKC,0.00,VWS V13.00,2014-04-23 07:11:00,
2014-04-23 01:16:00,34.7,28.9,33.80,North,0,0.0,0.0,79,0.00,,SKC,0.00,VWS V13.00,2014-04-23 07:16:00,
2014-04-23 01:21:00,34.5,28.7,33.80,North,0,0.0,0.0,79,0.00,,SKC,0.00,VWS V13.00,2014-04-23 07:21:00,
2014-04-23 01:26:00,34.5,28.7,33.80,North,0,0.0,0.0,79,0.00,,SKC,0.00,VWS V13.00,2014-04-23 07:26:00,
2014-04-23 01:31:00,34.5,28.7,33.80,North,0,0.0,0.0,79,0.00,,SKC,0.00,VWS V13.00,2014-04-23 07:31:00,
2014-04-23 01:36:00,34.5,28.7,33.80,North,0,0.0,0.0,79,0.00,,SKC,0.00,VWS V13.00,2014-04-23 07:36:00,
2014-04-23 01:41:00,34.5,28.7,33.80,North,0,0.0,0.0,79,0.00,,SKC,0.00,VWS V13.00,2014-04-23 07:41:00,
2014-04-23 01:46:00,34.3,28.5,33.80,North,0,0.0,0.0,79,0.00,,SKC,0.00,VWS V13.00,2014-04-23 07:46:00,
2014-04-23 01:51:00,34.5,28.7,33.80,North,0,0.0,0.0,79,0.00,,SKC,0.00,VWS V13.00,2014-04-23 07:51:00,
2014-04-23 01:56:00,34.5,28.7,33.80,North,0,0.0,0.0,79,0.00,,SKC,0.00,VWS V13.00,2014-04-23 07:56:00,
2014-04-23 02:02:00,34.3,28.5,33.80,North,0,0.0,0.0,79,0.00,,SKC,0.00,VWS V13.00,2014-04-23 08:02:00,
2014-04-23 02:07:00,34.3,28.5,33.80,North,0,0.0,0.0,79,0.00,,SKC,0.00,VWS V13.00,2014-04-23 08:07:00,
2014-04-23 02:12:00,34.3,28.5,33.80,North,0,0.0,0.0,79,0.00,,SKC,0.00,VWS V13.00,2014-04-23 08:12:00,
2014-04-23 02:17:00,34.3,28.5,33.80,North,0,0.0,0.0,79,0.00,,SKC,0.00,VWS V13.00,2014-04-23 08:17:00,
2014-04-23 02:22:00,34.3,28.8,33.80,North,0,0.0,0.0,80,0.00,,SKC,0.00,VWS V13.00,2014-04-23 08:22:00,
2014-04-23 02:27:00,34.2,28.6,33.80,North,0,0.0,0.0,80,0.00,,SKC,0.00,VWS V13.00,2014-04-23 08:27:00,
2014-04-23 02:32:00,34.0,28.8,33.80,North,0,0.0,0.0,81,0.00,,SKC,0.00,VWS V13.00,2014-04-23 08:32:00,
2014-04-23 02:37:00,34.0,28.8,33.80,North,0,0.0,0.0,81,0.00,,SKC,0.00,VWS V13.00,2014-04-23 08:37:00,
2014-04-23 02:42:00,33.8,28.6,33.80,North,0,0.0,0.0,81,0.00,,SKC,0.00,VWS V13.00,2014-04-23 08:42:00,
2014-04-23 02:47:00,33.6,28.4,33.80,North,0,0.0,0.0,81,0.00,,SKC,0.00,VWS V13.00,2014-04-23 08:47:00,
2014-04-23 02:52:00,33.6,28.4,33.80,North,0,0.0,0.0,81,0.00,,SKC,0.00,VWS V13.00,2014-04-23 08:52:00,
2014-04-23 02:57:00,33.4,28.2,33.80,North,0,0.0,0.0,81,0.00,,SKC,0.00,VWS V13.00,2014-04-23 08:57:00,
2014-04-23 03:02:00,33.4,28.5,33.80,North,0,0.0,0.0,82,0.00,,SKC,0.00,VWS V13.00,2014-04-23 09:02:00,
2014-04-23 03:07:00,33.6,29.0,33.80,North,0,0.0,0.0,83,0.00,,SKC,0.00,VWS V13.00,2014-04-23 09:07:00,
2014-04-23 03:12:00,33.4,28.8,33.80,North,0,0.0,0.0,83,0.00,,SKC,0.00,VWS V13.00,2014-04-23 09:12:00,
2014-04-23 03:17:00,33.3,29.0,33.80,North,0,0.0,0.0,84,0.00,,SKC,0.00,VWS V13.00,2014-04-23 09:17:00,
2014-04-23 03:22:00,33.1,29.1,33.80,North,0,0.0,0.0,85,0.00,,SKC,0.00,VWS V13.00,2014-04-23 09:22:00,
2014-04-23 03:27:00,32.9,28.9,33.80,North,0,0.0,0.0,85,0.00,,SKC,0.00,VWS V13.00,2014-04-23 09:27:00,
2014-04-23 03:32:00,32.7,28.7,33.80,North,0,0.0,0.0,85,0.00,,SKC,0.00,VWS V13.00,2014-04-23 09:32:00,
2014-04-23 03:37:00,32.4,28.4,33.80,North,0,0.0,0.0,85,0.00,,SKC,0.00,VWS V13.00,2014-04-23 09:37:00,
2014-04-23 03:42:00,32.2,28.5,33.80,North,0,0.0,0.0,86,0.00,,SKC,0.00,VWS V13.00,2014-04-23 09:42:00,
2014-04-23 03:47:00,32.0,28.3,33.80,North,0,0.0,0.0,86,0.00,,SKC,0.00,VWS V13.00,2014-04-23 09:47:00,
2014-04-23 03:52:00,32.0,28.6,33.80,North,0,0.0,0.0,87,0.00,,SKC,0.00,VWS V13.00,2014-04-23 09:52:00,
2014-04-23 03:57:00,32.0,28.6,33.80,North,0,0.0,0.0,87,0.00,,SKC,0.00,VWS V13.00,2014-04-23 09:57:00,
2014-04-23 04:02:00,31.8,28.4,33.80,North,0,0.0,0.0,87,0.00,,SKC,0.00,VWS V13.00,2014-04-23 10:02:00,
2014-04-23 04:07:00,31.8,28.4,33.80,North,0,0.0,0.0,87,0.00,,SKC,0.00,VWS V13.00,2014-04-23 10:07:00,
2014-04-23 04:12:00,31.8,28.4,33.80,North,0,0.0,0.0,87,0.00,,SKC,0.00,VWS V13.00,2014-04-23 10:12:00,
2014-04-23 04:17:00,31.6,28.2,33.80,North,0,0.0,0.0,87,0.00,,SKC,0.00,VWS V13.00,2014-04-23 10:17:00,
2014-04-23 04:22:00,31.6,27.9,33.80,North,0,0.0,0.0,86,0.00,,SKC,0.00,VWS V13.00,2014-04-23 10:22:00,
2014-04-23 04:27:00,31.6,27.9,33.80,North,0,0.0,0.0,86,0.00,,SKC,0.00,VWS V13.00,2014-04-23 10:27:00,
2014-04-23 04:32:00,31.8,27.8,33.80,North,0,0.0,0.0,85,0.00,,SKC,0.00,VWS V13.00,2014-04-23 10:32:00,
2014-04-23 04:37:00,32.0,28.0,33.80,North,0,0.0,0.0,85,0.00,,SKC,0.00,VWS V13.00,2014-04-23 10:37:00,
2014-04-23 04:42:00,31.8,27.5,33.80,North,0,0.0,0.0,84,0.00,,SKC,0.00,VWS V13.00,2014-04-23 10:42:00,
2014-04-23 04:47:00,31.8,27.3,33.80,North,0,0.0,0.0,83,0.00,,SKC,0.00,VWS V13.00,2014-04-23 10:47:00,
2014-04-23 04:52:00,31.6,26.8,33.80,North,0,0.0,0.0,82,0.00,,SKC,0.00,VWS V13.00,2014-04-23 10:52:00,
2014-04-23 04:57:00,31.8,26.7,33.80,North,0,0.0,0.0,81,0.00,,SKC,0.00,VWS V13.00,2014-04-23 10:57:00,
2014-04-23 05:02:00,32.0,26.8,33.80,North,0,0.0,0.0,81,0.00,,SKC,0.00,VWS V13.00,2014-04-23 11:02:00,
2014-04-23 05:07:00,32.2,27.0,33.80,North,0,0.0,0.0,81,0.00,,SKC,0.00,VWS V13.00,2014-04-23 11:07:00,
2014-04-23 05:12:00,32.2,26.7,33.80,North,0,0.0,0.0,80,0.00,,SKC,0.00,VWS V13.00,2014-04-23 11:12:00,
2014-04-23 05:17:00,32.2,26.7,33.80,North,0,0.0,0.0,80,0.00,,SKC,0.00,VWS V13.00,2014-04-23 11:17:00,
2014-04-23 05:22:00,32.0,26.2,33.80,North,0,0.0,0.0,79,0.00,,SKC,0.00,VWS V13.00,2014-04-23 11:22:00,
2014-04-23 05:27:00,32.0,26.2,33.80,North,0,0.0,0.0,79,0.00,,SKC,0.00,VWS V13.00,2014-04-23 11:27:00,
2014-04-23 05:32:00,32.0,26.2,24.38,North,0,0.0,0.0,79,0.00,,SKC,0.00,VWS V13.00,2014-04-23 11:32:00,
2014-04-23 05:37:00,31.8,25.8,24.38,North,0,0.0,0.0,78,0.00,,SKC,0.00,VWS V13.00,2014-04-23 11:37:00,
2014-04-23 05:42:00,31.8,25.8,24.38,North,0,0.0,0.0,78,0.00,,SKC,0.00,VWS V13.00,2014-04-23 11:42:00,
2014-04-23 05:47:00,31.8,25.8,24.38,North,0,0.0,0.0,78,0.00,,SKC,0.00,VWS V13.00,2014-04-23 11:47:00,
2014-04-23 05:52:00,31.8,25.8,24.38,North,0,0.0,0.0,78,0.00,,SKC,0.00,VWS V13.00,2014-04-23 11:52:00,
2014-04-23 05:57:00,31.8,25.8,24.38,North,0,0.0,0.0,78,0.00,,SKC,0.00,VWS V13.00,2014-04-23 11:57:00,
2014-04-23 06:02:00,31.8,25.8,24.38,North,0,0.0,0.0,78,0.00,,SKC,0.00,VWS V13.00,2014-04-23 12:02:00,
2014-04-23 06:07:00,31.8,25.8,24.38,North,0,0.0,0.0,78,0.00,,SKC,0.00,VWS V13.00,2014-04-23 12:07:00,
2014-04-23 06:12:00,31.6,25.3,24.38,North,0,0.0,0.0,77,0.00,,SKC,0.00,VWS V13.00,2014-04-23 12:12:00,
2014-04-23 06:17:00,31.5,24.8,24.38,North,0,0.0,0.0,76,0.00,,SKC,0.00,VWS V13.00,2014-04-23 12:17:00,
2014-04-23 06:23:00,31.3,24.3,24.38,North,0,0.0,0.0,75,0.00,,SKC,0.00,VWS V13.00,2014-04-23 12:23:00,
2014-04-23 06:28:00,31.1,24.1,24.38,North,0,0.0,0.0,75,0.00,,SKC,0.00,VWS V13.00,2014-04-23 12:28:00,
2014-04-23 06:33:00,31.1,24.1,24.38,North,0,0.0,0.0,75,0.00,,SKC,0.00,VWS V13.00,2014-04-23 12:33:00,
2014-04-23 06:38:00,31.1,24.1,24.38,North,0,0.0,0.0,75,0.00,,SKC,0.00,VWS V13.00,2014-04-23 12:38:00,
2014-04-23 06:43:00,30.7,23.1,24.38,North,0,0.0,0.0,73,0.00,,SKC,0.00,VWS V13.00,2014-04-23 12:43:00,
2014-04-23 06:48:00,30.7,22.5,24.38,North,0,0.0,0.0,71,0.00,,SKC,0.00,VWS V13.00,2014-04-23 12:48:00,
2014-04-23 06:53:00,30.9,22.3,24.38,North,0,0.0,0.0,70,0.00,,SKC,0.00,VWS V13.00,2014-04-23 12:53:00,
2014-04-23 06:58:00,30.9,22.6,24.38,North,0,0.0,0.0,71,0.00,,SKC,0.00,VWS V13.00,2014-04-23 12:58:00,
2014-04-23 07:03:00,31.1,22.8,24.38,North,0,0.0,0.0,71,0.00,,SKC,0.00,VWS V13.00,2014-04-23 13:03:00,
2014-04-23 07:08:00,31.1,22.8,24.38,North,0,0.0,0.0,71,0.00,,SKC,0.00,VWS V13.00,2014-04-23 13:08:00,
2014-04-23 07:13:00,31.1,22.5,24.38,North,0,0.0,0.0,70,0.00,,SKC,0.00,VWS V13.00,2014-04-23 13:13:00,
2014-04-23 07:18:00,31.1,22.5,24.38,North,0,0.0,0.0,70,0.00,,SKC,0.00,VWS V13.00,2014-04-23 13:18:00,
2014-04-23 07:23:00,31.1,22.5,24.38,North,0,0.0,0.0,70,0.00,,SKC,0.00,VWS V13.00,2014-04-23 13:23:00,
2014-04-23 07:28:00,31.1,22.8,24.38,North,0,0.0,0.0,71,0.00,,SKC,0.00,VWS V13.00,2014-04-23 13:28:00,
2014-04-23 07:33:00,31.3,23.0,24.38,North,0,0.0,0.0,71,0.00,,SKC,0.00,VWS V13.00,2014-04-23 13:33:00,
2014-04-23 07:38:00,31.3,23.3,24.38,North,0,0.0,0.0,72,0.00,,SKC,0.00,VWS V13.00,2014-04-23 13:38:00,
2014-04-23 07:43:00,31.6,23.3,24.38,North,0,0.0,0.0,71,0.00,,SKC,0.00,VWS V13.00,2014-04-23 13:43:00,
2014-04-23 07:48:00,32.0,23.7,24.38,North,0,0.0,0.0,71,0.00,,SKC,0.00,VWS V13.00,2014-04-23 13:48:00,
2014-04-23 07:53:00,32.0,23.0,24.38,North,0,0.0,0.0,69,0.00,,SKC,0.00,VWS V13.00,2014-04-23 13:53:00,
2014-04-23 07:58:00,32.0,22.3,24.38,North,0,0.0,0.0,67,0.00,,SKC,0.00,VWS V13.00,2014-04-23 13:58:00,
2014-04-23 08:03:00,32.2,22.1,24.38,North,0,0.0,0.0,66,0.00,,SKC,0.00,VWS V13.00,2014-04-23 14:03:00,
2014-04-23 08:08:00,32.5,22.8,24.38,North,0,0.0,0.0,67,0.00,,SKC,0.00,VWS V13.00,2014-04-23 14:08:00,
2014-04-23 08:13:00,32.5,22.5,24.38,North,0,0.0,0.0,66,0.00,,SKC,0.00,VWS V13.00,2014-04-23 14:13:00,
2014-04-23 08:18:00,32.2,21.4,24.38,North,0,0.0,0.0,64,0.00,,SKC,0.00,VWS V13.00,2014-04-23 14:18:00,
2014-04-23 08:23:00,31.8,20.7,24.38,North,0,0.0,0.0,63,0.00,,SKC,0.00,VWS V13.00,2014-04-23 14:23:00,
2014-04-23 08:28:00,31.8,21.0,24.38,North,0,0.0,0.0,64,0.00,,SKC,0.00,VWS V13.00,2014-04-23 14:28:00,
2014-04-23 08:33:00,32.0,21.6,24.38,North,0,0.0,0.0,65,0.00,,SKC,0.00,VWS V13.00,2014-04-23 14:33:00,
2014-04-23 08:38:00,32.2,22.1,24.38,North,0,0.0,0.0,66,0.00,,SKC,0.00,VWS V13.00,2014-04-23 14:38:00,
2014-04-23 08:43:00,32.4,22.3,24.38,North,0,0.0,0.0,66,0.00,,SKC,0.00,VWS V13.00,2014-04-23 14:43:00,
2014-04-23 08:48:00,32.2,21.0,24.38,North,0,0.0,0.0,63,0.00,,SKC,0.00,VWS V13.00,2014-04-23 14:48:00,
2014-04-23 08:53:00,32.4,20.8,24.38,North,0,0.0,0.0,62,0.00,,SKC,0.00,VWS V13.00,2014-04-23 14:53:00,
2014-04-23 08:58:00,32.5,21.4,24.38,North,0,0.0,0.0,63,0.00,,SKC,0.00,VWS V13.00,2014-04-23 14:58:00,
2014-04-23 09:03:00,33.1,21.9,24.38,North,0,0.0,0.0,63,0.00,,SKC,0.00,VWS V13.00,2014-04-23 15:03:00,
2014-04-23 09:08:00,33.8,22.2,24.38,North,0,0.0,0.0,62,0.00,,SKC,0.00,VWS V13.00,2014-04-23 15:08:00,
2014-04-23 09:13:00,34.3,22.7,24.38,North,0,0.0,0.0,62,0.00,,SKC,0.00,VWS V13.00,2014-04-23 15:13:00,
2014-04-23 09:18:00,34.9,23.2,24.38,North,0,0.0,0.0,62,0.00,,SKC,0.00,VWS V13.00,2014-04-23 15:18:00,
2014-04-23 09:23:00,34.9,22.0,24.38,North,0,0.0,0.0,59,0.00,,SKC,0.00,VWS V13.00,2014-04-23 15:23:00,
2014-04-23 09:28:00,34.9,22.0,24.38,North,0,0.0,0.0,59,0.00,,SKC,0.00,VWS V13.00,2014-04-23 15:28:00,
2014-04-23 09:33:00,35.1,21.8,24.38,North,0,0.0,0.0,58,0.00,,SKC,0.00,VWS V13.00,2014-04-23 15:33:00,
2014-04-23 09:38:00,35.4,22.1,24.38,North,0,0.0,0.0,58,0.00,,SKC,0.00,VWS V13.00,2014-04-23 15:38:00,
2014-04-23 09:43:00,36.1,22.4,24.38,North,0,0.0,0.0,57,0.00,,SKC,0.00,VWS V13.00,2014-04-23 15:43:00,
2014-04-23 09:48:00,36.3,22.1,24.38,North,0,0.0,0.0,56,0.00,,SKC,0.00,VWS V13.00,2014-04-23 15:48:00,
2014-04-23 09:53:00,36.9,23.1,24.38,North,0,0.0,0.0,57,0.00,,SKC,0.00,VWS V13.00,2014-04-23 15:53:00,
2014-04-23 09:58:00,37.4,22.7,24.38,North,0,0.0,0.0,55,0.00,,SKC,0.00,VWS V13.00,2014-04-23 15:58:00,
2014-04-23 10:03:00,37.6,21.6,30.32,North,0,0.0,0.0,52,0.00,,SKC,0.00,VWS V13.00,2014-04-23 16:03:00,
2014-04-23 10:09:00,37.0,21.1,30.32,North,0,0.0,0.0,52,0.00,,SKC,0.00,VWS V13.00,2014-04-23 16:09:00,
2014-04-23 10:14:00,36.9,20.9,30.32,North,0,0.0,0.0,52,0.00,,SKC,0.00,VWS V13.00,2014-04-23 16:14:00,
2014-04-23 10:19:00,36.9,21.3,30.32,North,0,0.0,0.0,53,0.00,,SKC,0.00,VWS V13.00,2014-04-23 16:19:00,
2014-04-23 10:24:00,36.1,20.7,30.32,North,0,0.0,0.0,53,0.00,,SKC,0.00,VWS V13.00,2014-04-23 16:24:00,
2014-04-23 10:29:00,36.3,21.7,30.32,North,0,0.0,0.0,55,0.00,,SKC,0.00,VWS V13.00,2014-04-23 16:29:00,
2014-04-23 10:34:00,36.7,22.9,24.38,North,0,0.0,0.0,57,0.00,,SKC,0.00,VWS V13.00,2014-04-23 16:34:00,
2014-04-23 10:39:00,37.4,23.6,24.38,North,0,0.0,0.0,57,0.00,,SKC,0.00,VWS V13.00,2014-04-23 16:39:00,
2014-04-23 10:44:00,37.9,23.2,24.38,North,0,0.0,0.0,55,0.00,,SKC,0.00,VWS V13.00,2014-04-23 16:44:00,
2014-04-23 10:49:00,37.9,22.4,24.38,North,0,0.0,0.0,53,0.00,,SKC,0.00,VWS V13.00,2014-04-23 16:49:00,
2014-04-23 10:54:00,37.8,22.2,24.38,North,0,0.0,0.0,53,0.00,,SKC,0.00,VWS V13.00,2014-04-23 16:54:00,
2014-04-23 10:59:00,37.6,22.0,24.38,North,0,0.0,0.0,53,0.00,,SKC,0.00,VWS V13.00,2014-04-23 16:59:00,
2014-04-23 11:04:00,37.0,22.0,24.38,North,0,0.0,0.0,54,0.00,,SKC,0.00,VWS V13.00,2014-04-23 17:04:00,
2014-04-23 11:09:00,36.3,20.8,24.38,North,0,0.0,0.0,53,0.00,,SKC,0.00,VWS V13.00,2014-04-23 17:09:00,
2014-04-23 11:14:00,36.5,21.9,24.38,North,0,0.0,0.0,55,0.00,,SKC,0.00,VWS V13.00,2014-04-23 17:14:00,
2014-04-23 11:19:00,37.0,22.8,24.38,North,0,0.0,0.0,56,0.00,,SKC,0.00,VWS V13.00,2014-04-23 17:19:00,
2014-04-23 11:24:00,37.2,23.4,24.38,North,0,0.0,0.0,57,0.00,,SKC,0.00,VWS V13.00,2014-04-23 17:24:00,
2014-04-23 11:29:00,37.4,23.1,24.38,North,0,0.0,0.0,56,0.00,,SKC,0.00,VWS V13.00,2014-04-23 17:29:00,
2014-04-23 11:34:00,37.2,22.6,27.78,North,0,0.0,0.0,55,0.00,,SKC,0.00,VWS V13.00,2014-04-23 17:34:00,
2014-04-23 11:39:00,37.4,22.7,27.78,North,0,0.0,0.0,55,0.00,,SKC,0.00,VWS V13.00,2014-04-23 17:39:00,
2014-04-23 11:44:00,37.8,22.2,27.78,North,0,0.0,0.0,53,0.00,,SKC,0.00,VWS V13.00,2014-04-23 17:44:00,
2014-04-23 11:49:00,38.1,21.6,27.78,North,0,0.0,0.0,51,0.00,,SKC,0.00,VWS V13.00,2014-04-23 17:49:00,
2014-04-23 11:54:00,37.9,21.4,27.78,North,0,0.0,0.0,51,0.00,,SKC,0.00,VWS V13.00,2014-04-23 17:54:00,
2014-04-23 11:59:00,37.8,20.8,27.78,North,0,0.0,0.0,50,0.00,,SKC,0.00,VWS V13.00,2014-04-23 17:59:00,
2014-04-23 12:04:00,37.4,20.9,27.78,North,0,0.0,0.0,51,0.00,,SKC,0.00,VWS V13.00,2014-04-23 18:04:00,
2014-04-23 12:09:00,37.0,21.1,27.78,North,0,0.0,0.0,52,0.00,,SKC,0.00,VWS V13.00,2014-04-23 18:09:00,
2014-04-23 12:14:00,37.2,21.2,27.78,North,0,0.0,0.0,52,0.00,,SKC,0.00,VWS V13.00,2014-04-23 18:14:00,
2014-04-23 12:19:00,37.9,21.4,27.78,North,0,0.0,0.0,51,0.00,,SKC,0.00,VWS V13.00,2014-04-23 18:19:00,
2014-04-23 12:24:00,38.8,22.7,27.78,North,0,0.0,0.0,52,0.00,,SKC,0.00,VWS V13.00,2014-04-23 18:24:00,
2014-04-23 12:29:00,39.4,22.3,27.78,North,0,0.0,0.0,50,0.00,,SKC,0.00,VWS V13.00,2014-04-23 18:29:00,
2014-04-23 12:34:00,39.4,19.8,27.78,North,0,0.0,0.0,45,0.00,,SKC,0.00,VWS V13.00,2014-04-23 18:34:00,
2014-04-23 12:39:00,39.4,21.3,27.78,North,0,0.0,0.0,48,0.00,,SKC,0.00,VWS V13.00,2014-04-23 18:39:00,
2014-04-23 12:44:00,39.2,19.7,27.78,North,0,0.0,0.0,45,0.00,,SKC,0.00,VWS V13.00,2014-04-23 18:44:00,
2014-04-23 12:49:00,39.2,20.7,27.78,North,0,0.0,0.0,47,0.00,,SKC,0.00,VWS V13.00,2014-04-23 18:49:00,
2014-04-23 12:54:00,39.9,21.8,27.78,North,0,0.0,0.0,48,0.00,,SKC,0.00,VWS V13.00,2014-04-23 18:54:00,
2014-04-23 12:59:00,40.6,22.5,27.78,North,0,0.0,0.0,48,0.00,,SKC,0.00,VWS V13.00,2014-04-23 18:59:00,
2014-04-23 13:04:00,40.6,21.0,27.78,North,0,0.0,0.0,45,0.00,,SKC,0.00,VWS V13.00,2014-04-23 19:04:00,
2014-04-23 13:09:00,40.6,20.5,27.78,North,0,0.0,0.0,44,0.00,,SKC,0.00,VWS V13.00,2014-04-23 19:09:00,
2014-04-23 13:14:00,41.2,22.5,27.78,North,0,0.0,0.0,47,0.00,,SKC,0.00,VWS V13.00,2014-04-23 19:14:00,
2014-04-23 13:19:00,41.4,21.1,27.78,North,0,0.0,0.0,44,0.00,,SKC,0.00,VWS V13.00,2014-04-23 19:19:00,
2014-04-23 13:25:00,41.7,20.9,27.78,North,0,0.0,0.0,43,0.00,,SKC,0.00,VWS V13.00,2014-04-23 19:25:00,
2014-04-23 13:30:00,41.4,19.5,27.78,North,0,0.0,0.0,41,0.00,,SKC,0.00,VWS V13.00,2014-04-23 19:30:00,
2014-04-23 13:35:00,40.6,19.9,27.78,North,0,0.0,0.0,43,0.00,,SKC,0.00,VWS V13.00,2014-04-23 19:35:00,
2014-04-23 13:40:00,40.1,19.4,27.78,North,0,0.0,0.0,43,0.00,,SKC,0.00,VWS V13.00,2014-04-23 19:40:00,
2014-04-23 13:45:00,39.4,19.3,27.78,North,0,0.0,0.0,44,0.00,,SKC,0.00,VWS V13.00,2014-04-23 19:45:00,
2014-04-23 13:50:00,39.2,20.7,27.78,North,0,0.0,0.0,47,0.00,,SKC,0.00,VWS V13.00,2014-04-23 19:50:00,
2014-04-23 13:55:00,39.9,18.7,27.78,North,0,0.0,0.0,42,0.00,,SKC,0.00,VWS V13.00,2014-04-23 19:55:00,
2014-04-23 14:00:00,39.6,17.2,27.78,North,0,0.0,0.0,40,0.00,,SKC,0.00,VWS V13.00,2014-04-23 20:00:00,
2014-04-23 14:05:00,39.2,18.6,27.78,North,0,0.0,0.0,43,0.00,,SKC,0.00,VWS V13.00,2014-04-23 20:05:00,
2014-04-23 14:10:00,38.8,17.2,27.78,North,0,0.0,0.0,41,0.00,,SKC,0.00,VWS V13.00,2014-04-23 20:10:00,
2014-04-23 14:15:00,38.8,17.7,27.78,North,0,0.0,0.0,42,0.00,,SKC,0.00,VWS V13.00,2014-04-23 20:15:00,
2014-04-23 14:20:00,38.8,16.6,27.78,North,0,0.0,0.0,40,0.00,,SKC,0.00,VWS V13.00,2014-04-23 20:20:00,
2014-04-23 14:25:00,38.8,17.7,27.78,North,0,0.0,0.0,42,0.00,,SKC,0.00,VWS V13.00,2014-04-23 20:25:00,
2014-04-23 14:30:00,38.7,17.6,27.78,North,0,0.0,0.0,42,0.00,,SKC,0.00,VWS V13.00,2014-04-23 20:30:00,
2014-04-23 14:35:00,39.6,17.2,27.78,North,0,0.0,0.0,40,0.00,,SKC,0.00,VWS V13.00,2014-04-23 20:35:00,
2014-04-23 14:40:00,40.6,18.2,27.78,North,0,0.0,0.0,40,0.00,,SKC,0.00,VWS V13.00,2014-04-23 20:40:00,
2014-04-23 14:45:00,41.0,17.4,27.78,North,0,0.0,0.0,38,0.00,,SKC,0.00,VWS V13.00,2014-04-23 20:45:00,
2014-04-23 14:50:00,40.6,17.0,27.78,North,0,0.0,0.0,38,0.00,,SKC,0.00,VWS V13.00,2014-04-23 20:50:00,
2014-04-23 14:55:00,41.4,17.7,27.78,North,0,0.0,0.0,38,0.00,,SKC,0.00,VWS V13.00,2014-04-23 20:55:00,
2014-04-23 15:00:00,41.9,18.2,27.78,North,0,0.0,0.0,38,0.00,,SKC,0.00,VWS V13.00,2014-04-23 21:00:00,
2014-04-23 15:05:00,41.5,17.8,27.78,North,0,0.0,0.0,38,0.00,,SKC,0.00,VWS V13.00,2014-04-23 21:05:00,
2014-04-23 15:10:00,41.5,17.8,27.78,North,0,0.0,0.0,38,0.00,,SKC,0.00,VWS V13.00,2014-04-23 21:10:00,
2014-04-23 15:14:00,41.9,18.8,27.78,North,0,0.0,0.0,39,0.00,,SKC,0.00,VWS V13.00,2014-04-23 21:14:00,
2014-04-23 15:19:00,42.1,19.5,27.78,North,0,0.0,0.0,40,0.00,,SKC,0.00,VWS V13.00,2014-04-23 21:19:00,
2014-04-23 15:24:00,42.3,19.1,27.78,North,0,0.0,0.0,39,0.00,,SKC,0.00,VWS V13.00,2014-04-23 21:24:00,
2014-04-23 15:29:00,42.8,19.0,27.78,North,0,0.0,0.0,38,0.00,,SKC,0.00,VWS V13.00,2014-04-23 21:29:00,
2014-04-23 15:34:00,42.3,18.5,27.78,North,0,0.0,0.0,38,0.00,,SKC,0.00,VWS V13.00,2014-04-23 21:34:00,
2014-04-23 15:39:00,41.5,18.4,27.78,North,0,0.0,0.0,39,0.00,,SKC,0.00,VWS V13.00,2014-04-23 21:39:00,
2014-04-23 15:44:00,41.2,18.1,27.78,North,0,0.0,0.0,39,0.00,,SKC,0.00,VWS V13.00,2014-04-23 21:44:00,
2014-04-23 15:49:00,40.6,17.6,27.78,North,0,0.0,0.0,39,0.00,,SKC,0.00,VWS V13.00,2014-04-23 21:49:00,
2014-04-23 15:54:00,40.6,17.6,27.78,North,0,0.0,0.0,39,0.00,,SKC,0.00,VWS V13.00,2014-04-23 21:54:00,
2014-04-23 15:59:00,40.8,17.8,27.78,North,0,0.0,0.0,39,0.00,,SKC,0.00,VWS V13.00,2014-04-23 21:59:00,
2014-04-23 16:04:00,40.5,17.5,27.78,North,0,0.0,0.0,39,0.00,,SKC,0.00,VWS V13.00,2014-04-23 22:04:00,
2014-04-23 16:09:00,39.6,16.1,27.78,North,0,0.0,0.0,38,0.00,,SKC,0.00,VWS V13.00,2014-04-23 22:09:00,
2014-04-23 16:14:00,39.6,16.7,27.78,North,0,0.0,0.0,39,0.00,,SKC,0.00,VWS V13.00,2014-04-23 22:14:00,
2014-04-23 16:19:00,39.9,17.0,27.78,North,0,0.0,0.0,39,0.00,,SKC,0.00,VWS V13.00,2014-04-23 22:19:00,
2014-04-23 16:24:00,40.1,16.5,27.78,North,0,0.0,0.0,38,0.00,,SKC,0.00,VWS V13.00,2014-04-23 22:24:00,
2014-04-23 16:29:00,39.7,16.8,27.78,North,0,0.0,0.0,39,0.00,,SKC,0.00,VWS V13.00,2014-04-23 22:29:00,
2014-04-23 16:34:00,39.9,17.0,27.78,North,0,0.0,0.0,39,0.00,,SKC,0.00,VWS V13.00,2014-04-23 22:34:00,
2014-04-23 16:39:00,39.7,15.6,27.78,North,0,0.0,0.0,37,0.00,,SKC,0.00,VWS V13.00,2014-04-23 22:39:00,
2014-04-23 16:44:00,39.2,15.7,27.78,North,0,0.0,0.0,38,0.00,,SKC,0.00,VWS V13.00,2014-04-23 22:44:00,
2014-04-23 16:49:00,38.8,16.0,27.78,North,0,0.0,0.0,39,0.00,,SKC,0.00,VWS V13.00,2014-04-23 22:49:00,
2014-04-23 16:54:00,38.8,16.0,27.78,North,0,0.0,0.0,39,0.00,,SKC,0.00,VWS V13.00,2014-04-23 22:54:00,
2014-04-23 16:59:00,39.0,15.6,27.78,North,0,0.0,0.0,38,0.00,,SKC,0.00,VWS V13.00,2014-04-23 22:59:00,
2014-04-23 17:04:00,39.2,15.1,27.78,North,0,0.0,0.0,37,0.00,,SKC,0.00,VWS V13.00,2014-04-23 23:04:00,
2014-04-23 17:09:00,39.4,15.3,27.78,North,0,0.0,0.0,37,0.00,,SKC,0.00,VWS V13.00,2014-04-23 23:09:00,
2014-04-23 17:14:00,39.2,15.7,27.78,North,0,0.0,0.0,38,0.00,,SKC,0.00,VWS V13.00,2014-04-23 23:14:00,
2014-04-23 17:19:00,39.2,15.1,27.78,North,0,0.0,0.0,37,0.00,,SKC,0.00,VWS V13.00,2014-04-23 23:19:00,
2014-04-23 17:24:00,39.2,15.7,27.78,North,0,0.0,0.0,38,0.00,,SKC,0.00,VWS V13.00,2014-04-23 23:24:00,
2014-04-23 17:29:00,39.0,15.6,27.78,North,0,0.0,0.0,38,0.00,,SKC,0.00,VWS V13.00,2014-04-23 23:29:00,
2014-04-23 17:34:00,39.0,15.0,27.78,North,0,0.0,0.0,37,0.00,,SKC,0.00,VWS V13.00,2014-04-23 23:34:00,
2014-04-23 17:39:00,38.8,16.0,27.78,North,0,0.0,0.0,39,0.00,,SKC,0.00,VWS V13.00,2014-04-23 23:39:00,
2014-04-23 17:44:00,38.7,14.0,27.78,North,0,0.0,0.0,36,0.00,,SKC,0.00,VWS V13.00,2014-04-23 23:44:00,
2014-04-23 17:49:00,38.5,13.9,27.78,North,0,0.0,0.0,36,0.00,,SKC,0.00,VWS V13.00,2014-04-23 23:49:00,
2014-04-23 17:54:00,38.7,15.3,27.78,North,0,0.0,0.0,38,0.00,,SKC,0.00,VWS V13.00,2014-04-23 23:54:00,
2014-04-23 17:59:00,38.7,15.3,27.78,North,0,0.0,0.0,38,0.00,,SKC,0.00,VWS V13.00,2014-04-23 23:59:00,
2014-04-23 18:04:00,38.8,14.8,27.78,North,0,0.0,0.0,37,0.00,,SKC,0.00,VWS V13.00,2014-04-24 00:04:00,
2014-04-23 18:09:00,39.0,15.0,27.78,North,0,0.0,0.0,37,0.00,,SKC,0.00,VWS V13.00,2014-04-24 00:09:00,
2014-04-23 18:14:00,39.0,16.2,27.78,North,0,0.0,0.0,39,0.00,,SKC,0.00,VWS V13.00,2014-04-24 00:14:00,
2014-04-23 18:19:00,39.4,15.9,27.78,North,0,0.0,0.0,38,0.00,,SKC,0.00,VWS V13.00,2014-04-24 00:19:00,
2014-04-23 18:24:00,39.4,16.5,27.78,North,0,0.0,0.0,39,0.00,,SKC,0.00,VWS V13.00,2014-04-24 00:24:00,
2014-04-23 18:29:00,39.2,16.3,27.78,North,0,0.0,0.0,39,0.00,,SKC,0.00,VWS V13.00,2014-04-24 00:29:00,
2014-04-23 18:34:00,39.0,16.2,27.78,North,0,0.0,0.0,39,0.00,,SKC,0.00,VWS V13.00,2014-04-24 00:34:00,
2014-04-23 18:39:00,39.0,16.2,27.78,North,0,0.0,0.0,39,0.00,,SKC,0.00,VWS V13.00,2014-04-24 00:39:00,
2014-04-23 18:45:00,38.8,16.0,27.78,North,0,0.0,0.0,39,0.00,,SKC,0.00,VWS V13.00,2014-04-24 00:45:00,
2014-04-23 18:50:00,38.8,16.0,27.78,North,0,0.0,0.0,39,0.00,,SKC,0.00,VWS V13.00,2014-04-24 00:50:00,
2014-04-23 18:55:00,38.8,16.0,27.78,North,0,0.0,0.0,39,0.00,,SKC,0.00,VWS V13.00,2014-04-24 00:55:00,
2014-04-23 19:00:00,39.0,16.2,27.78,North,0,0.0,0.0,39,0.00,,SKC,0.00,VWS V13.00,2014-04-24 01:00:00,
2014-04-23 19:05:00,39.0,16.2,27.78,North,0,0.0,0.0,39,0.00,,SKC,0.00,VWS V13.00,2014-04-24 01:05:00,
2014-04-23 19:10:00,38.8,16.6,27.78,North,0,0.0,0.0,40,0.00,,SKC,0.00,VWS V13.00,2014-04-24 01:10:00,
2014-04-23 19:15:00,38.8,16.6,27.78,North,0,0.0,0.0,40,0.00,,SKC,0.00,VWS V13.00,2014-04-24 01:15:00,
2014-04-23 19:20:00,38.7,15.9,27.78,North,0,0.0,0.0,39,0.00,,SKC,0.00,VWS V13.00,2014-04-24 01:20:00,
2014-04-23 19:25:00,38.5,15.7,27.78,North,0,0.0,0.0,39,0.00,,SKC,0.00,VWS V13.00,2014-04-24 01:25:00,
2014-04-23 19:30:00,38.5,16.3,27.78,North,0,0.0,0.0,40,0.00,,SKC,0.00,VWS V13.00,2014-04-24 01:30:00,
2014-04-23 19:35:00,38.1,15.9,27.78,North,0,0.0,0.0,40,0.00,,SKC,0.00,VWS V13.00,2014-04-24 01:35:00,
2014-04-23 19:40:00,37.9,15.8,27.78,North,0,0.0,0.0,40,0.00,,SKC,0.00,VWS V13.00,2014-04-24 01:40:00,
2014-04-23 19:45:00,37.6,15.5,27.78,North,0,0.0,0.0,40,0.00,,SKC,0.00,VWS V13.00,2014-04-24 01:45:00,
2014-04-23 19:50:00,37.2,15.7,27.78,North,0,0.0,0.0,41,0.00,,SKC,0.00,VWS V13.00,2014-04-24 01:50:00,
2014-04-23 19:55:00,37.0,15.5,27.78,North,0,0.0,0.0,41,0.00,,SKC,0.00,VWS V13.00,2014-04-24 01:55:00,
2014-04-23 20:00:00,36.9,17.0,27.78,North,0,0.0,0.0,44,0.00,,SKC,0.00,VWS V13.00,2014-04-24 02:00:00,
2014-04-23 20:05:00,36.5,17.7,27.78,North,0,0.0,0.0,46,0.00,,SKC,0.00,VWS V13.00,2014-04-24 02:05:00,
2014-04-23 20:10:00,36.1,18.4,27.78,North,0,0.0,0.0,48,0.00,,SKC,0.00,VWS V13.00,2014-04-24 02:10:00,
2014-04-23 20:15:00,36.0,19.1,27.78,North,0,0.0,0.0,50,0.00,,SKC,0.00,VWS V13.00,2014-04-24 02:15:00,
2014-04-23 20:20:00,35.6,19.3,27.78,North,0,0.0,0.0,51,0.00,,SKC,0.00,VWS V13.00,2014-04-24 02:20:00,
2014-04-23 20:25:00,35.4,19.1,27.78,North,0,0.0,0.0,51,0.00,,SKC,0.00,VWS V13.00,2014-04-24 02:25:00,
2014-04-23 20:30:00,35.1,18.8,27.78,North,0,0.0,0.0,51,0.00,,SKC,0.00,VWS V13.00,2014-04-24 02:30:00,
2014-04-23 20:35:00,34.7,18.4,27.78,North,0,0.0,0.0,51,0.00,,SKC,0.00,VWS V13.00,2014-04-24 02:35:00,
2014-04-23 20:40:00,34.5,18.3,27.78,North,0,0.0,0.0,51,0.00,,SKC,0.00,VWS V13.00,2014-04-24 02:40:00,
2014-04-23 20:45:00,34.3,18.5,27.78,North,0,0.0,0.0,52,0.00,,SKC,0.00,VWS V13.00,2014-04-24 02:45:00,
2014-04-23 20:50:00,34.2,18.4,27.78,North,0,0.0,0.0,52,0.00,,SKC,0.00,VWS V13.00,2014-04-24 02:50:00,
2014-04-23 20:55:00,34.0,18.2,27.78,North,0,0.0,0.0,52,0.00,,SKC,0.00,VWS V13.00,2014-04-24 02:55:00,
2014-04-23 21:00:00,33.8,18.5,27.78,North,0,0.0,0.0,53,0.00,,SKC,0.00,VWS V13.00,2014-04-24 03:00:00,
2014-04-23 21:05:00,33.8,18.5,27.78,North,0,0.0,0.0,53,0.00,,SKC,0.00,VWS V13.00,2014-04-24 03:05:00,
2014-04-23 21:10:00,34.0,18.7,27.78,North,0,0.0,0.0,53,0.00,,SKC,0.00,VWS V13.00,2014-04-24 03:10:00,
2014-04-23 21:15:00,34.3,19.0,27.78,North,0,0.0,0.0,53,0.00,,SKC,0.00,VWS V13.00,2014-04-24 03:15:00,
2014-04-23 21:20:00,34.3,19.0,27.78,North,0,0.0,0.0,53,0.00,,SKC,0.00,VWS V13.00,2014-04-24 03:20:00,
2014-04-23 21:25:00,34.3,18.5,27.78,North,0,0.0,0.0,52,0.00,,SKC,0.00,VWS V13.00,2014-04-24 03:25:00,
2014-04-23 21:30:00,34.3,18.5,27.78,North,0,0.0,0.0,52,0.00,,SKC,0.00,VWS V13.00,2014-04-24 03:30:00,
2014-04-23 21:35:00,34.3,18.5,27.78,North,0,0.0,0.0,52,0.00,,SKC,0.00,VWS V13.00,2014-04-24 03:35:00,
2014-04-23 21:40:00,34.3,18.5,27.78,North,0,0.0,0.0,52,0.00,,SKC,0.00,VWS V13.00,2014-04-24 03:40:00,
2014-04-23 21:45:00,34.0,18.7,27.78,North,0,0.0,0.0,53,0.00,,SKC,0.00,VWS V13.00,2014-04-24 03:45:00,
2014-04-23 21:50:00,34.0,18.7,27.78,North,0,0.0,0.0,53,0.00,,SKC,0.00,VWS V13.00,2014-04-24 03:50:00,
2014-04-23 21:55:00,33.8,18.5,27.78,North,0,0.0,0.0,53,0.00,,SKC,0.00,VWS V13.00,2014-04-24 03:55:00,
2014-04-23 22:00:00,33.6,18.3,27.78,North,0,0.0,0.0,53,0.00,,SKC,0.00,VWS V13.00,2014-04-24 04:00:00,
2014-04-23 22:01:00,33.6,18.3,27.78,North,0,0.0,0.0,53,0.00,,SKC,0.00,VWS V13.00,2014-04-24 04:01:00,
2014-04-23 22:02:00,33.4,18.6,27.78,North,0,0.0,0.0,54,0.00,,SKC,0.00,VWS V13.00,2014-04-24 04:02:00,
2014-04-23 22:07:00,33.3,18.4,27.78,North,0,0.0,0.0,54,0.00,,SKC,0.00,VWS V13.00,2014-04-24 04:07:00,
2014-04-23 22:12:00,33.1,18.3,27.78,North,0,0.0,0.0,54,0.00,,SKC,0.00,VWS V13.00,2014-04-24 04:12:00,
2014-04-23 22:17:00,32.9,18.1,27.78,North,0,0.0,0.0,54,0.00,,SKC,0.00,VWS V13.00,2014-04-24 04:17:00,
2014-04-23 22:22:00,32.7,17.9,27.78,North,0,0.0,0.0,54,0.00,,SKC,0.00,VWS V13.00,2014-04-24 04:22:00,
2014-04-23 22:27:00,32.4,17.6,27.78,North,0,0.0,0.0,54,0.00,,SKC,0.00,VWS V13.00,2014-04-24 04:27:00,
2014-04-23 22:32:00,32.2,17.8,27.01,North,0,0.0,0.0,55,0.00,,SKC,0.00,VWS V13.00,2014-04-24 04:32:00,
2014-04-23 22:37:00,32.2,17.8,27.01,North,0,0.0,0.0,55,0.00,,SKC,0.00,VWS V13.00,2014-04-24 04:37:00,
2014-04-23 22:43:00,32.0,17.7,27.01,North,0,0.0,0.0,55,0.00,,SKC,0.00,VWS V13.00,2014-04-24 04:43:00,
2014-04-23 22:48:00,32.0,18.1,27.01,North,0,0.0,0.0,56,0.00,,SKC,0.00,VWS V13.00,2014-04-24 04:48:00,
2014-04-23 22:53:00,31.8,17.9,27.01,North,0,0.0,0.0,56,0.00,,SKC,0.00,VWS V13.00,2014-04-24 04:53:00,
2014-04-23 22:58:00,31.8,17.9,27.01,North,0,0.0,0.0,56,0.00,,SKC,0.00,VWS V13.00,2014-04-24 04:58:00,
2014-04-23 23:03:00,32.0,18.5,27.01,North,0,0.0,0.0,57,0.00,,SKC,0.00,VWS V13.00,2014-04-24 05:03:00,
2014-04-23 23:08:00,32.2,18.7,27.01,North,0,0.0,0.0,57,0.00,,SKC,0.00,VWS V13.00,2014-04-24 05:08:00,
2014-04-23 23:13:00,32.4,18.8,27.01,North,0,0.0,0.0,57,0.00,,SKC,0.00,VWS V13.00,2014-04-24 05:13:00,
2014-04-23 23:18:00,32.4,18.8,27.01,North,0,0.0,0.0,57,0.00,,SKC,0.00,VWS V13.00,2014-04-24 05:18:00,
2014-04-23 23:23:00,32.5,19.0,27.01,North,0,0.0,0.0,57,0.00,,SKC,0.00,VWS V13.00,2014-04-24 05:23:00,
2014-04-23 23:28:00,32.5,18.6,27.01,North,0,0.0,0.0,56,0.00,,SKC,0.00,VWS V13.00,2014-04-24 05:28:00,